Accueil
METAR-TAF:

METAR-TAF

Aéroports :

Aéroport de Milan Malpensa

Milan, Italie

latitude: 45-37N, longitude: 008-44E, altitude: 234 m

Observation

Le bulletin a été fait il y a 36 minutes, à 00:50 UTC
Vent 8 kt de nord/nord-est
Température 15°C
Humidité 88%
Pression 1016 hPa
Visibilité 10 km ou plus
Nuages fragmentés à une hauteur de 5000 ft

METAR: LIMC 210050Z 02008KT 9999 BKN050 15/13 Q1016 NOSIG

Heure: 03:26 (01:26 UTC)

Prévision

Le bulletin a été fait il y a 2 heures et 26 minutes, à 23:00 UTC
Prévision valable du 21 à 00 UTC au 22 à 06 UTC
Vent 7 kt de nord
Visibilité 10 km ou plus
Nuages fragmentés à une hauteur de 5000 ft
Temporairement
du 21 à 00 UTC au 21 à 03 UTC
Visibilité: 4000 m
orage, pluie

TAF: LIMC 202300Z 2100/2206 35007KT 9999 BKN050 TEMPO 2100/2103 4000 TSRA

Observations et prévisions météorologiques de plus de 4000 aéroports (messages METAR et TAF).

Les stations disponibles sont représentées par des disques jaunes et rouges sur la carte.

Passer la souris dessus pour voir le nom de la station.

Cliquer dessus pour voir les observations et prévisions météorologiques.

Pour changer de carte: cliquez sur les boutons verts avec une croix noire pour zoomer, sur le bouton vert avec un tiret pour effectuer un zoom arrière, ou sur les flèches vertes pour les cartes adjacentes.


METAR-TAF: